sensor_id;sensor_type;location;lat;lon;timestamp;temperature;humidity
65584;DHT22;70321;43.592;1.456;2023-07-08T00:02:11;20.00;85.45
65584;DHT22;70321;43.592;1.456;2023-07-08T00:04:38;20.03;85.42
65584;DHT22;70321;43.592;1.456;2023-07-08T00:07:03;20.09;85.14
65584;DHT22;70321;43.592;1.456;2023-07-08T00:09:29;20.14;85.18
65584;DHT22;70321;43.592;1.456;2023-07-08T00:11:55;20.17;84.96
65584;DHT22;70321;43.592;1.456;2023-07-08T00:14:22;20.16;84.41
65584;DHT22;70321;43.592;1.456;2023-07-08T00:16:48;20.19;84.84
65584;DHT22;70321;43.592;1.456;2023-07-08T00:19:15;20.19;84.65
65584;DHT22;70321;43.592;1.456;2023-07-08T00:21:44;20.16;84.33
65584;DHT22;70321;43.592;1.456;2023-07-08T00:24:10;20.13;84.48
65584;DHT22;70321;43.592;1.456;2023-07-08T00:26:35;20.12;84.51
65584;DHT22;70321;43.592;1.456;2023-07-08T00:29:00;20.12;84.57
65584;DHT22;70321;43.592;1.456;2023-07-08T00:31:26;20.09;84.37
65584;DHT22;70321;43.592;1.456;2023-07-08T00:33:53;20.06;84.67
65584;DHT22;70321;43.592;1.456;2023-07-08T00:36:21;20.07;84.87
65584;DHT22;70321;43.592;1.456;2023-07-08T00:38:46;20.09;84.75
65584;DHT22;70321;43.592;1.456;2023-07-08T00:43:46;20.07;84.67
65584;DHT22;70321;43.592;1.456;2023-07-08T00:49:11;20.09;84.77
65584;DHT22;70321;43.592;1.456;2023-07-08T00:51:39;20.09;84.77
65584;DHT22;70321;43.592;1.456;2023-07-08T00:54:15;20.10;84.70
65584;DHT22;70321;43.592;1.456;2023-07-08T00:59:25;20.01;84.80
65584;DHT22;70321;43.592;1.456;2023-07-08T01:01:54;19.99;84.62
65584;DHT22;70321;43.592;1.456;2023-07-08T01:04:40;20.03;85.07
65584;DHT22;70321;43.592;1.456;2023-07-08T01:07:09;20.03;85.05
65584;DHT22;70321;43.592;1.456;2023-07-08T01:09:37;20.01;84.80
65584;DHT22;70321;43.592;1.456;2023-07-08T01:12:06;20.05;84.73
65584;DHT22;70321;43.592;1.456;2023-07-08T01:14:34;20.06;84.88
65584;DHT22;70321;43.592;1.456;2023-07-08T01:17:01;20.03;84.72
65584;DHT22;70321;43.592;1.456;2023-07-08T01:19:28;20.06;84.59
65584;DHT22;70321;43.592;1.456;2023-07-08T01:22:03;20.05;84.75
65584;DHT22;70321;43.592;1.456;2023-07-08T01:24:30;20.05;84.74
65584;DHT22;70321;43.592;1.456;2023-07-08T01:26:57;20.01;84.72
65584;DHT22;70321;43.592;1.456;2023-07-08T01:29:23;20.05;84.59
65584;DHT22;70321;43.592;1.456;2023-07-08T01:31:49;20.01;84.46
65584;DHT22;70321;43.592;1.456;2023-07-08T01:34:17;20.01;84.52
65584;DHT22;70321;43.592;1.456;2023-07-08T01:36:54;20.07;84.80
65584;DHT22;70321;43.592;1.456;2023-07-08T01:39:22;20.09;84.63
65584;DHT22;70321;43.592;1.456;2023-07-08T01:41:48;20.14;84.47
65584;DHT22;70321;43.592;1.456;2023-07-08T01:44:30;20.16;84.39
65584;DHT22;70321;43.592;1.456;2023-07-08T01:47:00;20.17;84.20
65584;DHT22;70321;43.592;1.456;2023-07-08T01:49:27;20.16;84.21
65584;DHT22;70321;43.592;1.456;2023-07-08T01:51:53;20.09;84.30
65584;DHT22;70321;43.592;1.456;2023-07-08T01:54:18;20.09;84.25
65584;DHT22;70321;43.592;1.456;2023-07-08T01:56:44;20.07;84.29
65584;DHT22;70321;43.592;1.456;2023-07-08T01:59:09;20.05;84.28
65584;DHT22;70321;43.592;1.456;2023-07-08T02:01:34;20.05;84.11
65584;DHT22;70321;43.592;1.456;2023-07-08T02:04:00;20.13;84.01
65584;DHT22;70321;43.592;1.456;2023-07-08T02:06:25;20.14;84.07
65584;DHT22;70321;43.592;1.456;2023-07-08T02:08:51;20.17;83.96
65584;DHT22;70321;43.592;1.456;2023-07-08T02:11:16;20.17;83.95
65584;DHT22;70321;43.592;1.456;2023-07-08T02:13:42;20.17;83.95
65584;DHT22;70321;43.592;1.456;2023-07-08T02:16:07;20.19;83.51
65584;DHT22;70321;43.592;1.456;2023-07-08T02:18:33;20.20;83.73
65584;DHT22;70321;43.592;1.456;2023-07-08T02:20:58;20.23;83.51
65584;DHT22;70321;43.592;1.456;2023-07-08T02:23:25;20.26;83.44
65584;DHT22;70321;43.592;1.456;2023-07-08T02:25:54;20.31;83.01
65584;DHT22;70321;43.592;1.456;2023-07-08T02:28:21;20.36;83.03
65584;DHT22;70321;43.592;1.456;2023-07-08T02:30:46;20.36;82.71
65584;DHT22;70321;43.592;1.456;2023-07-08T02:33:13;20.37;82.82
65584;DHT22;70321;43.592;1.456;2023-07-08T02:35:40;20.44;82.73
65584;DHT22;70321;43.592;1.456;2023-07-08T02:38:05;20.45;82.55
65584;DHT22;70321;43.592;1.456;2023-07-08T02:40:30;20.47;82.62
65584;DHT22;70321;43.592;1.456;2023-07-08T02:42:56;20.51;82.65
65584;DHT22;70321;43.592;1.456;2023-07-08T02:45:21;20.51;82.62
65584;DHT22;70321;43.592;1.456;2023-07-08T02:47:47;20.55;82.38
65584;DHT22;70321;43.592;1.456;2023-07-08T02:50:12;20.57;82.68
65584;DHT22;70321;43.592;1.456;2023-07-08T02:52:38;20.55;82.57
65584;DHT22;70321;43.592;1.456;2023-07-08T02:55:04;20.61;82.72
65584;DHT22;70321;43.592;1.456;2023-07-08T02:57:30;20.63;82.53
65584;DHT22;70321;43.592;1.456;2023-07-08T02:59:55;20.65;82.44
65584;DHT22;70321;43.592;1.456;2023-07-08T03:02:22;20.67;82.47
65584;DHT22;70321;43.592;1.456;2023-07-08T03:04:47;20.68;82.51
65584;DHT22;70321;43.592;1.456;2023-07-08T03:07:15;20.70;82.46
65584;DHT22;70321;43.592;1.456;2023-07-08T03:09:41;20.70;82.60
65584;DHT22;70321;43.592;1.456;2023-07-08T03:12:08;20.68;82.49
65584;DHT22;70321;43.592;1.456;2023-07-08T03:14:34;20.74;82.58
65584;DHT22;70321;43.592;1.456;2023-07-08T03:17:00;20.73;82.57
65584;DHT22;70321;43.592;1.456;2023-07-08T03:19:25;20.74;82.46
65584;DHT22;70321;43.592;1.456;2023-07-08T03:21:51;20.71;82.58
65584;DHT22;70321;43.592;1.456;2023-07-08T03:24:17;20.74;82.42
65584;DHT22;70321;43.592;1.456;2023-07-08T03:26:44;20.77;82.47
65584;DHT22;70321;43.592;1.456;2023-07-08T03:29:14;20.78;82.53
65584;DHT22;70321;43.592;1.456;2023-07-08T03:31:40;20.81;82.63
65584;DHT22;70321;43.592;1.456;2023-07-08T03:34:07;20.80;82.60
65584;DHT22;70321;43.592;1.456;2023-07-08T03:36:32;20.78;82.49
65584;DHT22;70321;43.592;1.456;2023-07-08T03:38:58;20.80;82.41
65584;DHT22;70321;43.592;1.456;2023-07-08T03:41:24;20.83;82.46
65584;DHT22;70321;43.592;1.456;2023-07-08T03:43:50;20.85;82.32
65584;DHT22;70321;43.592;1.456;2023-07-08T03:46:19;20.85;82.44
65584;DHT22;70321;43.592;1.456;2023-07-08T03:48:46;20.87;81.88
65584;DHT22;70321;43.592;1.456;2023-07-08T03:51:24;20.90;82.08
65584;DHT22;70321;43.592;1.456;2023-07-08T03:53:50;20.90;82.06
65584;DHT22;70321;43.592;1.456;2023-07-08T03:56:16;20.94;81.85
65584;DHT22;70321;43.592;1.456;2023-07-08T03:58:41;20.94;81.58
65584;DHT22;70321;43.592;1.456;2023-07-08T04:01:14;20.94;81.52
65584;DHT22;70321;43.592;1.456;2023-07-08T04:03:41;21.02;81.59
65584;DHT22;70321;43.592;1.456;2023-07-08T04:06:06;21.01;81.19
65584;DHT22;70321;43.592;1.456;2023-07-08T04:08:31;21.04;81.37
65584;DHT22;70321;43.592;1.456;2023-07-08T04:10:57;21.08;81.46
65584;DHT22;70321;43.592;1.456;2023-07-08T04:13:22;21.12;81.25
65584;DHT22;70321;43.592;1.456;2023-07-08T04:15:53;21.16;81.54
65584;DHT22;70321;43.592;1.456;2023-07-08T04:18:19;21.14;80.99
65584;DHT22;70321;43.592;1.456;2023-07-08T04:20:45;21.14;80.98
65584;DHT22;70321;43.592;1.456;2023-07-08T04:23:18;21.11;81.03
65584;DHT22;70321;43.592;1.456;2023-07-08T04:25:44;21.12;81.16
65584;DHT22;70321;43.592;1.456;2023-07-08T04:28:09;21.09;81.15
65584;DHT22;70321;43.592;1.456;2023-07-08T04:30:34;21.14;81.37
65584;DHT22;70321;43.592;1.456;2023-07-08T04:33:09;21.16;81.37
65584;DHT22;70321;43.592;1.456;2023-07-08T04:35:36;21.18;80.48
65584;DHT22;70321;43.592;1.456;2023-07-08T04:38:08;21.21;80.95
65584;DHT22;70321;43.592;1.456;2023-07-08T04:40:37;21.19;81.17
65584;DHT22;70321;43.592;1.456;2023-07-08T04:43:06;21.21;81.06
65584;DHT22;70321;43.592;1.456;2023-07-08T04:45:31;21.22;81.38
65584;DHT22;70321;43.592;1.456;2023-07-08T04:47:57;21.25;81.34
65584;DHT22;70321;43.592;1.456;2023-07-08T04:50:22;21.24;81.02
65584;DHT22;70321;43.592;1.456;2023-07-08T04:52:48;21.21;81.33
65584;DHT22;70321;43.592;1.456;2023-07-08T04:55:15;21.21;81.42
65584;DHT22;70321;43.592;1.456;2023-07-08T04:57:40;21.14;81.24
65584;DHT22;70321;43.592;1.456;2023-07-08T05:00:07;21.19;81.44
65584;DHT22;70321;43.592;1.456;2023-07-08T05:02:35;21.18;81.59
65584;DHT22;70321;43.592;1.456;2023-07-08T05:05:01;21.18;81.68
65584;DHT22;70321;43.592;1.456;2023-07-08T05:07:26;21.19;81.69
65584;DHT22;70321;43.592;1.456;2023-07-08T05:09:52;21.16;81.77
65584;DHT22;70321;43.592;1.456;2023-07-08T05:12:17;21.14;82.15
65584;DHT22;70321;43.592;1.456;2023-07-08T05:14:42;21.14;82.44
65584;DHT22;70321;43.592;1.456;2023-07-08T05:17:08;21.19;82.42
65584;DHT22;70321;43.592;1.456;2023-07-08T05:19:33;21.22;82.42
65584;DHT22;70321;43.592;1.456;2023-07-08T05:21:59;21.22;82.61
65584;DHT22;70321;43.592;1.456;2023-07-08T05:24:24;21.26;82.72
65584;DHT22;70321;43.592;1.456;2023-07-08T05:26:50;21.26;82.77
65584;DHT22;70321;43.592;1.456;2023-07-08T05:29:15;21.32;82.78
65584;DHT22;70321;43.592;1.456;2023-07-08T05:31:41;21.32;82.93
65584;DHT22;70321;43.592;1.456;2023-07-08T05:34:06;21.35;82.93
65584;DHT22;70321;43.592;1.456;2023-07-08T05:36:31;21.35;83.19
65584;DHT22;70321;43.592;1.456;2023-07-08T05:38:57;21.38;83.22
65584;DHT22;70321;43.592;1.456;2023-07-08T05:41:22;21.38;83.16
65584;DHT22;70321;43.592;1.456;2023-07-08T05:43:48;21.41;83.36
65584;DHT22;70321;43.592;1.456;2023-07-08T05:46:13;21.42;83.43
65584;DHT22;70321;43.592;1.456;2023-07-08T05:48:39;21.45;83.25
65584;DHT22;70321;43.592;1.456;2023-07-08T05:51:04;21.52;83.43
65584;DHT22;70321;43.592;1.456;2023-07-08T05:53:30;21.53;83.20
65584;DHT22;70321;43.592;1.456;2023-07-08T05:55:56;21.56;83.46
65584;DHT22;70321;43.592;1.456;2023-07-08T05:58:21;21.62;83.28
65584;DHT22;70321;43.592;1.456;2023-07-08T06:00:47;21.63;83.38
65584;DHT22;70321;43.592;1.456;2023-07-08T06:03:12;21.73;83.45
65584;DHT22;70321;43.592;1.456;2023-07-08T06:05:38;21.79;83.46
65584;DHT22;70321;43.592;1.456;2023-07-08T06:08:06;21.83;83.03
65584;DHT22;70321;43.592;1.456;2023-07-08T06:10:31;21.86;83.07
65584;DHT22;70321;43.592;1.456;2023-07-08T06:12:57;21.94;83.10
65584;DHT22;70321;43.592;1.456;2023-07-08T06:15:22;21.99;82.56
65584;DHT22;70321;43.592;1.456;2023-07-08T06:17:47;22.04;82.62
65584;DHT22;70321;43.592;1.456;2023-07-08T06:20:13;22.12;82.70
65584;DHT22;70321;43.592;1.456;2023-07-08T06:22:38;22.16;82.70
65584;DHT22;70321;43.592;1.456;2023-07-08T06:25:04;22.24;82.51
65584;DHT22;70321;43.592;1.456;2023-07-08T06:27:29;22.29;81.87
65584;DHT22;70321;43.592;1.456;2023-07-08T06:29:55;22.36;82.01
65584;DHT22;70321;43.592;1.456;2023-07-08T06:32:20;22.41;82.14
65584;DHT22;70321;43.592;1.456;2023-07-08T06:34:46;22.48;81.93
65584;DHT22;70321;43.592;1.456;2023-07-08T06:37:11;22.51;81.79
65584;DHT22;70321;43.592;1.456;2023-07-08T06:39:36;22.55;81.74
65584;DHT22;70321;43.592;1.456;2023-07-08T06:42:02;22.55;81.21
65584;DHT22;70321;43.592;1.456;2023-07-08T06:44:27;22.55;81.16
65584;DHT22;70321;43.592;1.456;2023-07-08T06:46:53;22.54;81.12
65584;DHT22;70321;43.592;1.456;2023-07-08T06:49:18;22.58;81.34
65584;DHT22;70321;43.592;1.456;2023-07-08T06:51:44;22.64;81.55
65584;DHT22;70321;43.592;1.456;2023-07-08T06:54:11;22.69;81.12
65584;DHT22;70321;43.592;1.456;2023-07-08T06:56:38;22.75;80.95
65584;DHT22;70321;43.592;1.456;2023-07-08T06:59:04;22.84;80.84
65584;DHT22;70321;43.592;1.456;2023-07-08T07:01:30;22.88;80.44
65584;DHT22;70321;43.592;1.456;2023-07-08T07:03:55;22.94;80.55
65584;DHT22;70321;43.592;1.456;2023-07-08T07:06:21;23.04;80.14
65584;DHT22;70321;43.592;1.456;2023-07-08T07:08:46;23.11;80.01
65584;DHT22;70321;43.592;1.456;2023-07-08T07:11:11;23.16;79.77
65584;DHT22;70321;43.592;1.456;2023-07-08T07:13:37;23.23;79.75
65584;DHT22;70321;43.592;1.456;2023-07-08T07:16:02;23.29;79.73
65584;DHT22;70321;43.592;1.456;2023-07-08T07:18:28;23.35;79.61
65584;DHT22;70321;43.592;1.456;2023-07-08T07:20:54;23.41;79.69
65584;DHT22;70321;43.592;1.456;2023-07-08T07:23:20;23.48;79.18
65584;DHT22;70321;43.592;1.456;2023-07-08T07:25:46;23.56;78.56
65584;DHT22;70321;43.592;1.456;2023-07-08T07:28:15;23.59;77.95
65584;DHT22;70321;43.592;1.456;2023-07-08T07:30:44;23.67;78.23
65584;DHT22;70321;43.592;1.456;2023-07-08T07:33:10;23.72;78.17
65584;DHT22;70321;43.592;1.456;2023-07-08T07:35:42;23.77;77.25
65584;DHT22;70321;43.592;1.456;2023-07-08T07:38:07;23.80;77.01
65584;DHT22;70321;43.592;1.456;2023-07-08T07:40:33;23.89;77.57
65584;DHT22;70321;43.592;1.456;2023-07-08T07:42:58;23.97;77.02
65584;DHT22;70321;43.592;1.456;2023-07-08T07:45:23;24.02;76.78
65584;DHT22;70321;43.592;1.456;2023-07-08T07:47:49;24.03;76.42
65584;DHT22;70321;43.592;1.456;2023-07-08T07:50:14;24.12;76.13
65584;DHT22;70321;43.592;1.456;2023-07-08T07:52:40;24.17;76.34
65584;DHT22;70321;43.592;1.456;2023-07-08T07:55:06;24.30;76.31
65584;DHT22;70321;43.592;1.456;2023-07-08T07:57:32;24.37;76.32
65584;DHT22;70321;43.592;1.456;2023-07-08T07:59:58;24.47;75.80
65584;DHT22;70321;43.592;1.456;2023-07-08T08:02:23;24.54;75.89
65584;DHT22;70321;43.592;1.456;2023-07-08T08:04:48;24.61;75.22
65584;DHT22;70321;43.592;1.456;2023-07-08T08:07:14;24.60;74.71
65584;DHT22;70321;43.592;1.456;2023-07-08T08:09:39;24.61;74.45
65584;DHT22;70321;43.592;1.456;2023-07-08T08:12:08;24.63;75.00
65584;DHT22;70321;43.592;1.456;2023-07-08T08:14:33;24.64;75.64
65584;DHT22;70321;43.592;1.456;2023-07-08T08:16:59;24.65;75.93
65584;DHT22;70321;43.592;1.456;2023-07-08T08:19:24;24.67;75.33
65584;DHT22;70321;43.592;1.456;2023-07-08T08:21:49;24.67;74.73
65584;DHT22;70321;43.592;1.456;2023-07-08T08:24:15;24.65;75.68
65584;DHT22;70321;43.592;1.456;2023-07-08T08:26:40;24.64;74.65
65584;DHT22;70321;43.592;1.456;2023-07-08T08:29:05;24.71;75.25
65584;DHT22;70321;43.592;1.456;2023-07-08T08:31:31;24.71;74.65
65584;DHT22;70321;43.592;1.456;2023-07-08T08:33:57;24.81;74.99
65584;DHT22;70321;43.592;1.456;2023-07-08T08:36:22;24.88;74.11
65584;DHT22;70321;43.592;1.456;2023-07-08T08:38:48;24.88;74.01
65584;DHT22;70321;43.592;1.456;2023-07-08T08:41:17;24.94;73.97
65584;DHT22;70321;43.592;1.456;2023-07-08T08:43:44;24.99;73.61
65584;DHT22;70321;43.592;1.456;2023-07-08T08:46:34;25.02;73.70
65584;DHT22;70321;43.592;1.456;2023-07-08T08:51:46;25.07;73.71
65584;DHT22;70321;43.592;1.456;2023-07-08T08:54:12;25.12;74.04
65584;DHT22;70321;43.592;1.456;2023-07-08T09:01:50;25.33;72.03
65584;DHT22;70321;43.592;1.456;2023-07-08T09:04:20;25.38;72.51
65584;DHT22;70321;43.592;1.456;2023-07-08T09:06:47;25.49;72.59
65584;DHT22;70321;43.592;1.456;2023-07-08T09:09:18;25.53;72.11
65584;DHT22;70321;43.592;1.456;2023-07-08T09:11:54;25.61;71.82
65584;DHT22;70321;43.592;1.456;2023-07-08T09:14:26;25.66;71.09
65584;DHT22;70321;43.592;1.456;2023-07-08T09:17:17;25.69;71.02
65584;DHT22;70321;43.592;1.456;2023-07-08T09:19:55;25.75;70.95
65584;DHT22;70321;43.592;1.456;2023-07-08T09:22:34;25.79;71.05
65584;DHT22;70321;43.592;1.456;2023-07-08T09:25:22;25.85;71.36
65584;DHT22;70321;43.592;1.456;2023-07-08T09:27:49;25.90;70.89
65584;DHT22;70321;43.592;1.456;2023-07-08T09:30:16;25.98;71.54
65584;DHT22;70321;43.592;1.456;2023-07-08T09:32:42;26.01;70.87
65584;DHT22;70321;43.592;1.456;2023-07-08T09:35:09;26.08;70.68
65584;DHT22;70321;43.592;1.456;2023-07-08T09:37:45;26.17;70.67
65584;DHT22;70321;43.592;1.456;2023-07-08T09:40:28;26.20;70.22
65584;DHT22;70321;43.592;1.456;2023-07-08T09:43:08;26.26;70.05
65584;DHT22;70321;43.592;1.456;2023-07-08T09:45:45;26.28;68.83
65584;DHT22;70321;43.592;1.456;2023-07-08T09:48:24;26.36;68.85
65584;DHT22;70321;43.592;1.456;2023-07-08T09:50:52;26.43;68.80
65584;DHT22;70321;43.592;1.456;2023-07-08T09:53:18;26.48;68.74
65584;DHT22;70321;43.592;1.456;2023-07-08T09:55:45;26.52;67.99
65584;DHT22;70321;43.592;1.456;2023-07-08T09:58:32;26.61;68.76
65584;DHT22;70321;43.592;1.456;2023-07-08T10:01:01;26.67;68.39
65584;DHT22;70321;43.592;1.456;2023-07-08T10:03:34;26.72;68.85
65584;DHT22;70321;43.592;1.456;2023-07-08T10:06:08;26.78;68.45
65584;DHT22;70321;43.592;1.456;2023-07-08T10:08:43;26.87;68.25
65584;DHT22;70321;43.592;1.456;2023-07-08T10:11:29;26.91;67.53
65584;DHT22;70321;43.592;1.456;2023-07-08T10:14:09;27.02;68.14
65584;DHT22;70321;43.592;1.456;2023-07-08T10:16:36;27.11;67.55
65584;DHT22;70321;43.592;1.456;2023-07-08T10:19:09;27.18;67.02
65584;DHT22;70321;43.592;1.456;2023-07-08T10:22:28;27.21;66.91
65584;DHT22;70321;43.592;1.456;2023-07-08T10:30:21;27.29;66.24
65584;DHT22;70321;43.592;1.456;2023-07-08T10:35:31;27.21;66.71
65584;DHT22;70321;43.592;1.456;2023-07-08T10:40:58;27.25;67.26
65584;DHT22;70321;43.592;1.456;2023-07-08T10:44:13;27.36;68.18
65584;DHT22;70321;43.592;1.456;2023-07-08T11:11:16;28.18;63.26
65584;DHT22;70321;43.592;1.456;2023-07-08T11:13:52;28.22;62.95
65584;DHT22;70321;43.592;1.456;2023-07-08T11:16:30;28.28;63.19
65584;DHT22;70321;43.592;1.456;2023-07-08T11:19:03;28.33;63.69
65584;DHT22;70321;43.592;1.456;2023-07-08T11:21:43;28.43;64.45
65584;DHT22;70321;43.592;1.456;2023-07-08T11:24:18;28.48;64.01
65584;DHT22;70321;43.592;1.456;2023-07-08T11:26:53;28.55;64.41
65584;DHT22;70321;43.592;1.456;2023-07-08T11:29:24;28.64;63.57
65584;DHT22;70321;43.592;1.456;2023-07-08T11:31:52;28.71;64.34
65584;DHT22;70321;43.592;1.456;2023-07-08T11:34:19;28.75;61.82
65584;DHT22;70321;43.592;1.456;2023-07-08T11:36:46;28.79;62.27
65584;DHT22;70321;43.592;1.456;2023-07-08T11:39:41;28.85;61.95
65584;DHT22;70321;43.592;1.456;2023-07-08T11:42:39;28.95;61.94
65584;DHT22;70321;43.592;1.456;2023-07-08T11:45:23;29.05;63.36
65584;DHT22;70321;43.592;1.456;2023-07-08T11:47:50;29.14;63.09
65584;DHT22;70321;43.592;1.456;2023-07-08T11:50:30;29.22;61.65
65584;DHT22;70321;43.592;1.456;2023-07-08T11:53:02;29.26;61.22
65584;DHT22;70321;43.592;1.456;2023-07-08T11:58:21;29.33;60.71
65584;DHT22;70321;43.592;1.456;2023-07-08T12:05:59;29.49;60.98
65584;DHT22;70321;43.592;1.456;2023-07-08T12:08:34;29.52;59.65
65584;DHT22;70321;43.592;1.456;2023-07-08T12:11:02;29.56;58.38
65584;DHT22;70321;43.592;1.456;2023-07-08T12:13:29;29.63;59.85
65584;DHT22;70321;43.592;1.456;2023-07-08T12:15:55;29.67;59.84
65584;DHT22;70321;43.592;1.456;2023-07-08T12:18:34;29.66;58.75
65584;DHT22;70321;43.592;1.456;2023-07-08T12:21:00;29.70;59.09
65584;DHT22;70321;43.592;1.456;2023-07-08T12:23:29;29.76;59.90
65584;DHT22;70321;43.592;1.456;2023-07-08T12:25:56;29.81;60.65
65584;DHT22;70321;43.592;1.456;2023-07-08T12:28:23;29.84;59.71
65584;DHT22;70321;43.592;1.456;2023-07-08T12:30:50;29.91;59.00
65584;DHT22;70321;43.592;1.456;2023-07-08T12:33:29;30.03;59.06
65584;DHT22;70321;43.592;1.456;2023-07-08T12:35:56;30.07;58.62
65584;DHT22;70321;43.592;1.456;2023-07-08T12:38:27;30.17;57.26
65584;DHT22;70321;43.592;1.456;2023-07-08T12:40:55;30.25;57.43
65584;DHT22;70321;43.592;1.456;2023-07-08T12:43:22;30.28;59.18
65584;DHT22;70321;43.592;1.456;2023-07-08T12:45:47;30.31;57.58
65584;DHT22;70321;43.592;1.456;2023-07-08T12:48:12;30.34;57.47
65584;DHT22;70321;43.592;1.456;2023-07-08T12:50:38;30.41;57.35
65584;DHT22;70321;43.592;1.456;2023-07-08T12:53:05;30.41;55.83
65584;DHT22;70321;43.592;1.456;2023-07-08T12:55:44;30.43;56.50
65584;DHT22;70321;43.592;1.456;2023-07-08T12:58:22;30.49;57.71
65584;DHT22;70321;43.592;1.456;2023-07-08T13:00:48;30.53;56.91
65584;DHT22;70321;43.592;1.456;2023-07-08T13:03:17;30.57;55.10
65584;DHT22;70321;43.592;1.456;2023-07-08T13:05:44;30.55;54.96
65584;DHT22;70321;43.592;1.456;2023-07-08T13:08:12;30.60;55.91
65584;DHT22;70321;43.592;1.456;2023-07-08T13:10:39;30.61;55.89
65584;DHT22;70321;43.592;1.456;2023-07-08T13:13:07;30.63;55.65
65584;DHT22;70321;43.592;1.456;2023-07-08T13:15:39;30.63;55.55
65584;DHT22;70321;43.592;1.456;2023-07-08T13:18:08;30.63;54.87
65584;DHT22;70321;43.592;1.456;2023-07-08T13:20:35;30.65;53.37
65584;DHT22;70321;43.592;1.456;2023-07-08T13:23:02;30.69;54.72
65584;DHT22;70321;43.592;1.456;2023-07-08T13:25:29;30.68;54.31
65584;DHT22;70321;43.592;1.456;2023-07-08T13:27:58;30.71;54.56
65584;DHT22;70321;43.592;1.456;2023-07-08T13:30:26;30.77;54.71
65584;DHT22;70321;43.592;1.456;2023-07-08T13:32:56;30.79;54.98
65584;DHT22;70321;43.592;1.456;2023-07-08T13:37:54;30.85;53.25
65584;DHT22;70321;43.592;1.456;2023-07-08T13:40:20;30.89;53.52
65584;DHT22;70321;43.592;1.456;2023-07-08T13:42:50;30.89;53.37
65584;DHT22;70321;43.592;1.456;2023-07-08T13:45:22;30.98;54.31
65584;DHT22;70321;43.592;1.456;2023-07-08T13:50:41;31.09;53.52
65584;DHT22;70321;43.592;1.456;2023-07-08T13:53:17;31.11;53.76
65584;DHT22;70321;43.592;1.456;2023-07-08T13:55:43;31.12;52.30
65584;DHT22;70321;43.592;1.456;2023-07-08T13:58:15;31.14;50.64
65584;DHT22;70321;43.592;1.456;2023-07-08T14:00:41;31.11;50.81
65584;DHT22;70321;43.592;1.456;2023-07-08T14:03:14;31.12;52.16
65584;DHT22;70321;43.592;1.456;2023-07-08T14:05:40;31.09;51.01
65584;DHT22;70321;43.592;1.456;2023-07-08T14:08:12;31.07;50.24
65584;DHT22;70321;43.592;1.456;2023-07-08T14:10:38;31.08;51.11
65584;DHT22;70321;43.592;1.456;2023-07-08T14:13:03;31.14;50.75
65584;DHT22;70321;43.592;1.456;2023-07-08T14:15:29;31.15;51.30
65584;DHT22;70321;43.592;1.456;2023-07-08T14:17:54;31.21;52.55
65584;DHT22;70321;43.592;1.456;2023-07-08T14:20:21;31.22;52.01
65584;DHT22;70321;43.592;1.456;2023-07-08T14:22:48;31.28;51.46
65584;DHT22;70321;43.592;1.456;2023-07-08T14:25:16;31.32;50.96
65584;DHT22;70321;43.592;1.456;2023-07-08T14:27:43;31.35;50.50
65584;DHT22;70321;43.592;1.456;2023-07-08T14:30:09;31.33;50.55
65584;DHT22;70321;43.592;1.456;2023-07-08T14:32:35;31.30;48.96
65584;DHT22;70321;43.592;1.456;2023-07-08T14:35:15;31.32;50.10
65584;DHT22;70321;43.592;1.456;2023-07-08T14:37:41;31.30;50.09
65584;DHT22;70321;43.592;1.456;2023-07-08T14:40:33;31.35;51.02
65584;DHT22;70321;43.592;1.456;2023-07-08T14:43:01;31.39;51.14
65584;DHT22;70321;43.592;1.456;2023-07-08T14:45:29;31.47;51.59
65584;DHT22;70321;43.592;1.456;2023-07-08T14:47:55;31.49;50.30
65584;DHT22;70321;43.592;1.456;2023-07-08T14:50:21;31.52;51.82
65584;DHT22;70321;43.592;1.456;2023-07-08T14:52:47;31.52;50.43
65584;DHT22;70321;43.592;1.456;2023-07-08T14:55:12;31.47;50.29
65584;DHT22;70321;43.592;1.456;2023-07-08T14:57:45;31.40;50.72
65584;DHT22;70321;43.592;1.456;2023-07-08T15:00:14;31.39;50.35
65584;DHT22;70321;43.592;1.456;2023-07-08T15:02:41;31.35;50.02
65584;DHT22;70321;43.592;1.456;2023-07-08T15:05:21;31.35;49.81
65584;DHT22;70321;43.592;1.456;2023-07-08T15:07:51;31.30;49.02
65584;DHT22;70321;43.592;1.456;2023-07-08T15:10:18;31.33;50.14
65584;DHT22;70321;43.592;1.456;2023-07-08T15:12:45;31.32;49.84
65584;DHT22;70321;43.592;1.456;2023-07-08T15:15:15;31.30;50.38
65584;DHT22;70321;43.592;1.456;2023-07-08T15:17:41;31.38;51.25
65584;DHT22;70321;43.592;1.456;2023-07-08T15:20:10;31.40;49.72
65584;DHT22;70321;43.592;1.456;2023-07-08T15:22:38;31.45;50.11
65584;DHT22;70321;43.592;1.456;2023-07-08T15:25:05;31.52;50.26
65584;DHT22;70321;43.592;1.456;2023-07-08T15:27:31;31.52;49.27
65584;DHT22;70321;43.592;1.456;2023-07-08T15:29:56;31.49;48.52
65584;DHT22;70321;43.592;1.456;2023-07-08T15:32:21;31.47;49.39
65584;DHT22;70321;43.592;1.456;2023-07-08T15:34:47;31.46;49.39
65584;DHT22;70321;43.592;1.456;2023-07-08T15:37:12;31.45;48.98
65584;DHT22;70321;43.592;1.456;2023-07-08T15:39:38;31.47;50.12
65584;DHT22;70321;43.592;1.456;2023-07-08T15:42:03;31.50;49.33
65584;DHT22;70321;43.592;1.456;2023-07-08T15:44:29;31.47;48.69
65584;DHT22;70321;43.592;1.456;2023-07-08T15:46:54;31.54;49.87
65584;DHT22;70321;43.592;1.456;2023-07-08T15:49:22;31.54;50.69
65584;DHT22;70321;43.592;1.456;2023-07-08T15:51:48;31.56;50.65
65584;DHT22;70321;43.592;1.456;2023-07-08T15:54:13;31.62;51.50
65584;DHT22;70321;43.592;1.456;2023-07-08T15:56:39;31.63;50.98
65584;DHT22;70321;43.592;1.456;2023-07-08T15:59:10;31.62;50.22
65584;DHT22;70321;43.592;1.456;2023-07-08T16:01:36;31.59;50.35
65584;DHT22;70321;43.592;1.456;2023-07-08T16:04:02;31.56;51.45
65584;DHT22;70321;43.592;1.456;2023-07-08T16:06:27;31.53;50.16
65584;DHT22;70321;43.592;1.456;2023-07-08T16:08:53;31.49;51.17
65584;DHT22;70321;43.592;1.456;2023-07-08T16:11:20;31.43;50.32
65584;DHT22;70321;43.592;1.456;2023-07-08T16:13:49;31.39;50.81
65584;DHT22;70321;43.592;1.456;2023-07-08T16:16:15;31.35;50.50
65584;DHT22;70321;43.592;1.456;2023-07-08T16:18:40;31.36;52.55
65584;DHT22;70321;43.592;1.456;2023-07-08T16:21:06;31.35;53.05
65584;DHT22;70321;43.592;1.456;2023-07-08T16:23:32;31.35;51.95
65584;DHT22;70321;43.592;1.456;2023-07-08T16:25:59;31.33;51.28
65584;DHT22;70321;43.592;1.456;2023-07-08T16:30:55;31.38;51.89
65584;DHT22;70321;43.592;1.456;2023-07-08T16:33:21;31.39;50.52
65584;DHT22;70321;43.592;1.456;2023-07-08T16:35:46;31.40;49.90
65584;DHT22;70321;43.592;1.456;2023-07-08T16:38:12;31.40;50.65
65584;DHT22;70321;43.592;1.456;2023-07-08T16:40:37;31.36;49.71
65584;DHT22;70321;43.592;1.456;2023-07-08T16:43:03;31.30;49.72
65584;DHT22;70321;43.592;1.456;2023-07-08T16:45:28;31.29;49.56